Abshers, North Carolina
Current Conditions -  °F | °C
As of 11:55 AM on Wednesday 22 Oct 2014 (Local Time) from KUKF Reporting Station
Clear Clear  
Wind Chill: 59°   Ceiling: Unl
Heat Index: 59°   Visibility: 10mi
Dew Point: 37°   Wind: 10mph
Humidity: 45%   Direction: 360°N
Pressure: 30.14"   Gusts: 20mph
Location:  36.345°N, 81.0285°W
Report Text: KUKF 221555Z AUTO 36009G17KT 320V030 10SM CLR 15/03 A3014 RMK AO2
Loading
Personal Weather Stations






























Interactive Weather Map New forecast layout! Learn more

10-Day Weather Forecast

Advertisements
Track Severe Weather on mobile